Terminal Aerodrome Forecast
Issued by NWS Huntsville, AL

Home | Current Version | Previous Version | Text Only | Print | Product List | Glossary On
Versions: 1 2 3 4 5 6 7 8 9 10 11 12 13 14 15 16 17 18 19 20 21 22 23 24 25
000
FTUS44 KHUN 282324
TAFHSV
TAF
KHSV 282324Z 2900/2924 35006KT P6SM FEW050
      TEMPO 2906/2910 SCT050=

USA.gov is the U.S. government's official web portal to all federal, state and local government web resources and services.